< < Back
Terminal Aerodrome Forecast


Current Version              Previous Versions:   1  2  3  4  5  6  7  8  9  

Terminal Aerodrome Forecast

521
FTUS42 KGSP 192200 AAB
TAFGSP
TAF AMD
KGSP 192252Z 1923/2018 16004KT P6SM SCT050 OVC110
      TEMPO 1923/1924 5SM -TSRA BR BKN050CB
     FM200000 26003KT P6SM BKN060
     FM201000 00000KT 5SM BR FEW250
     FM201200 25006KT P6SM FEW060 SCT250=



Latest METAR

028
SAUS70 KWBC 200500 RRK
MTRGSP
METAR KGSP 200453Z AUTO 00000KT 10SM CLR 22/21 A2992 RMK AO2 SLP119
T02170211 403170211 $


USA.gov is the U.S. government's official web portal to all federal, state and local government web resources and services.